createdAt,value
2019-05-01T00:01:27.199Z,80.44
2019-05-01T00:04:06.892Z,79.66
2019-05-01T00:06:44.381Z,79.33
2019-05-01T00:09:16.033Z,78.85
2019-05-01T00:11:46.647Z,79.04
2019-05-01T00:14:17.054Z,79.43
2019-05-01T00:16:47.950Z,79.15
2019-05-01T00:19:18.518Z,80.21
2019-05-01T00:21:48.964Z,79.64
2019-05-01T00:24:19.376Z,80.16
2019-05-01T00:26:49.815Z,80.18
2019-05-01T00:29:20.251Z,80.90
2019-05-01T00:31:50.670Z,80.80
2019-05-01T00:34:21.058Z,81.46
2019-05-01T00:36:51.483Z,81.07
2019-05-01T00:39:21.803Z,80.67
2019-05-01T00:41:52.223Z,81.63
2019-05-01T00:44:22.533Z,81.87
2019-05-01T00:46:52.865Z,82.29
2019-05-01T00:49:23.271Z,81.46
2019-05-01T00:51:53.754Z,81.50
2019-05-01T00:54:24.143Z,82.12
2019-05-01T00:57:03.428Z,82.06
2019-05-01T00:59:55.943Z,80.38
2019-05-01T01:02:39.322Z,80.53
2019-05-01T01:05:09.752Z,81.37
2019-05-01T01:07:40.248Z,81.34
2019-05-01T01:10:10.920Z,82.07
2019-05-01T01:12:41.399Z,81.64
2019-05-01T01:15:12.287Z,81.44
2019-05-01T01:17:42.663Z,81.29
2019-05-01T01:20:13.094Z,81.40
2019-05-01T01:22:43.511Z,81.43
2019-05-01T01:25:14.139Z,81.43
2019-05-01T01:27:45.724Z,81.08
2019-05-01T01:30:16.519Z,81.24
2019-05-01T01:32:46.970Z,80.96
2019-05-01T01:35:17.437Z,80.93
2019-05-01T01:37:47.718Z,81.15
2019-05-01T01:40:18.386Z,82.10
2019-05-01T01:42:50.847Z,82.60
2019-05-01T01:45:29.427Z,82.45
2019-05-01T01:48:16.911Z,82.21
2019-05-01T01:50:48.293Z,82.65
2019-05-01T01:53:21.561Z,83.12
2019-05-01T01:55:53.069Z,81.96
2019-05-01T01:58:24.328Z,82.64
2019-05-01T02:01:13.352Z,82.98
2019-05-01T02:03:46.861Z,82.28
2019-05-01T02:06:17.771Z,82.06
2019-05-01T02:08:56.414Z,81.75
2019-05-01T02:11:20.773Z,81.22
2019-05-01T02:13:55.085Z,81.30
2019-05-01T02:16:26.085Z,81.33
2019-05-01T02:18:56.515Z,81.66
2019-05-01T02:21:27.021Z,81.93
2019-05-01T02:23:57.699Z,81.56
2019-05-01T02:26:30.112Z,82.21
2019-05-01T02:29:15.318Z,82.13
2019-05-01T02:31:48.907Z,82.40
2019-05-01T02:34:20.766Z,82.79
2019-05-01T02:36:53.363Z,82.27
2019-05-01T02:39:24.720Z,82.37
2019-05-01T02:41:56.962Z,81.30
2019-05-01T02:44:44.924Z,83.09
2019-05-01T02:47:24.578Z,82.04
2019-05-01T02:50:04.115Z,83.41
2019-05-01T02:52:37.458Z,82.05
2019-05-01T02:55:22.440Z,82.79
2019-05-01T02:57:53.623Z,82.98
2019-05-01T03:00:24.862Z,83.74
2019-05-01T03:02:56.053Z,82.29
2019-05-01T03:05:26.964Z,81.99
2019-05-01T03:07:57.633Z,81.70
2019-05-01T03:10:28.773Z,81.71
2019-05-01T03:12:59.846Z,81.92
2019-05-01T03:15:33.660Z,83.18
2019-05-01T03:18:12.948Z,84.45
2019-05-01T03:21:01.018Z,83.70
2019-05-01T03:23:35.701Z,84.56
2019-05-01T03:26:06.783Z,84.17
2019-05-01T03:28:37.489Z,84.11
2019-05-01T03:31:07.850Z,84.49
2019-05-01T03:33:38.876Z,83.69
2019-05-01T03:36:09.272Z,81.99
2019-05-01T03:38:39.872Z,81.92
2019-05-01T03:41:10.594Z,82.46
2019-05-01T03:43:41.779Z,83.51
2019-05-01T03:46:12.618Z,82.74
2019-05-01T03:48:43.665Z,83.87
2019-05-01T03:51:14.185Z,84.32
2019-05-01T03:53:44.730Z,85.03
2019-05-01T03:56:16.172Z,84.42
2019-05-01T03:58:46.849Z,84.28
2019-05-01T04:01:48.155Z,84.13
2019-05-01T04:04:23.685Z,84.81
2019-05-01T04:06:54.258Z,84.58
2019-05-01T04:09:24.778Z,83.60
2019-05-01T04:11:55.332Z,83.51
2019-05-01T04:14:26.041Z,84.37
2019-05-01T04:17:21.999Z,83.88
2019-05-01T04:19:52.903Z,83.67
2019-05-01T04:22:23.297Z,83.67
2019-05-01T04:24:53.988Z,83.47
2019-05-01T04:27:29.348Z,82.40
2019-05-01T04:30:11.347Z,83.65
2019-05-01T04:32:52.266Z,84.34
2019-05-01T04:35:18.906Z,82.88
2019-05-01T04:37:50.017Z,83.11
2019-05-01T04:40:21.222Z,83.44
2019-05-01T04:42:51.934Z,83.48
2019-05-01T04:45:24.090Z,83.38
2019-05-01T04:47:55.159Z,83.12
2019-05-01T04:50:25.682Z,82.55
2019-05-01T04:52:56.164Z,82.37
2019-05-01T04:55:26.641Z,82.72
2019-05-01T04:57:57.181Z,83.24
2019-05-01T05:00:27.648Z,83.99
2019-05-01T05:03:04.837Z,84.19
2019-05-01T05:05:35.883Z,84.03
2019-05-01T05:08:06.607Z,83.74
2019-05-01T05:10:37.025Z,84.70
2019-05-01T05:13:24.954Z,84.47
2019-05-01T05:16:20.343Z,84.22
2019-05-01T05:18:50.802Z,84.35
2019-05-01T05:21:21.319Z,84.27
2019-05-01T05:23:52.168Z,83.89
2019-05-01T05:26:22.646Z,84.75
2019-05-01T05:28:54.070Z,84.79
2019-05-01T05:31:26.880Z,84.95
2019-05-01T05:33:59.535Z,84.63
2019-05-01T05:36:32.521Z,84.36
2019-05-01T05:39:20.598Z,83.84
2019-05-01T05:41:52.175Z,83.56
2019-05-01T05:44:22.930Z,83.34
2019-05-01T05:46:53.349Z,82.85
2019-05-01T05:49:24.438Z,82.69
2019-05-01T05:52:06.573Z,82.38
2019-05-01T05:54:55.977Z,82.24
2019-05-01T05:58:00.578Z,81.60
2019-05-01T06:00:52.998Z,81.36
2019-05-01T06:04:05.303Z,80.62
2019-05-01T06:06:48.373Z,80.74
2019-05-01T06:09:23.748Z,80.67
2019-05-01T06:12:17.903Z,80.14
2019-05-01T06:15:02.402Z,79.48
2019-05-01T06:17:59.083Z,78.99
2019-05-01T06:20:37.540Z,78.60
2019-05-01T06:23:36.362Z,78.01
2019-05-01T06:26:27.506Z,77.74
2019-05-01T06:29:00.722Z,76.54
2019-05-01T06:31:30.088Z,75.87
2019-05-01T06:34:01.240Z,75.85
2019-05-01T06:36:32.050Z,73.98
2019-05-01T06:39:06.980Z,74.25
2019-05-01T06:41:42.638Z,74.18
2019-05-01T06:44:33.381Z,73.51
2019-05-01T06:47:15.148Z,73.01
2019-05-01T06:50:11.414Z,72.71
2019-05-01T06:52:42.553Z,72.15
2019-05-01T06:55:13.111Z,71.33
2019-05-01T06:57:45.626Z,70.78
2019-05-01T07:00:17.995Z,70.73
2019-05-01T07:02:50.618Z,69.62
2019-05-01T07:05:23.168Z,67.66
2019-05-01T07:07:55.802Z,67.29
2019-05-01T07:10:31.529Z,66.24
2019-05-01T07:13:05.020Z,66.77
2019-05-01T07:15:35.238Z,65.70
2019-05-01T07:18:05.803Z,65.28
2019-05-01T07:20:53.618Z,63.91
2019-05-01T07:23:24.941Z,63.89
2019-05-01T07:25:55.833Z,60.46
2019-05-01T07:28:28.777Z,58.64
2019-05-01T07:31:06.306Z,58.97
2019-05-01T07:33:37.081Z,55.66
2019-05-01T07:36:15.468Z,55.07
2019-05-01T07:38:40.705Z,55.74
2019-05-01T07:41:12.478Z,54.37
2019-05-01T07:44:05.672Z,52.97
2019-05-01T07:46:56.134Z,51.50
2019-05-01T07:50:00.080Z,50.78
2019-05-01T07:52:30.712Z,50.72
2019-05-01T07:55:01.741Z,49.83
2019-05-01T07:57:34.403Z,46.18
2019-05-01T08:00:08.565Z,46.87
2019-05-01T08:02:39.222Z,44.06
2019-05-01T08:05:11.735Z,43.07
2019-05-01T08:07:42.382Z,44.44
2019-05-01T08:10:12.843Z,43.45
2019-05-01T08:12:45.120Z,41.54
2019-05-01T08:15:15.632Z,41.75
2019-05-01T08:17:48.777Z,41.65
2019-05-01T08:20:26.164Z,37.02
2019-05-01T08:22:56.623Z,38.19
2019-05-01T08:25:28.627Z,39.48
2019-05-01T08:28:27.673Z,37.75
2019-05-01T08:31:04.171Z,36.09
2019-05-01T08:33:58.496Z,35.13
2019-05-01T08:36:28.925Z,37.24
2019-05-01T08:38:59.395Z,39.52
2019-05-01T08:41:31.860Z,40.05
2019-05-01T08:44:01.828Z,39.56
2019-05-01T08:46:52.140Z,40.10
2019-05-01T08:49:30.004Z,39.85
2019-05-01T08:52:00.418Z,40.07
2019-05-01T08:54:33.516Z,39.84
2019-05-01T08:57:03.021Z,36.79
2019-05-01T08:59:33.501Z,36.70
2019-05-01T09:02:09.372Z,35.31
2019-05-01T09:04:36.025Z,34.45
2019-05-01T09:07:06.551Z,32.17
2019-05-01T09:09:39.798Z,32.73
2019-05-01T09:12:11.848Z,35.66
2019-05-01T09:14:41.238Z,36.48
2019-05-01T09:17:11.641Z,36.01
2019-05-01T09:19:42.106Z,33.32
2019-05-01T09:22:12.828Z,31.37
2019-05-01T09:24:43.436Z,29.90
2019-05-01T09:27:40.592Z,32.38
2019-05-01T09:30:21.991Z,27.81
2019-05-01T09:32:54.219Z,25.59
2019-05-01T09:35:22.059Z,26.12
2019-05-01T09:37:52.536Z,24.71
2019-05-01T09:40:23.100Z,25.31
2019-05-01T09:42:54.694Z,27.33
2019-05-01T09:45:25.769Z,26.31
2019-05-01T09:47:56.319Z,27.43
2019-05-01T09:50:30.506Z,29.60
2019-05-01T09:53:15.871Z,29.82
2019-05-01T09:55:52.525Z,32.13
2019-05-01T09:58:22.896Z,29.77
2019-05-01T10:00:56.186Z,28.85
2019-05-01T10:03:26.665Z,26.05
2019-05-01T10:05:57.142Z,25.44
2019-05-01T10:08:27.483Z,23.17
2019-05-01T10:10:59.886Z,23.10
2019-05-01T10:13:30.040Z,23.13
2019-05-01T10:16:00.557Z,23.97
2019-05-01T10:18:30.992Z,27.58
2019-05-01T10:21:01.415Z,28.67
2019-05-01T10:23:31.870Z,30.26
2019-05-01T10:26:03.979Z,30.64
2019-05-01T10:28:56.465Z,30.89
2019-05-01T10:31:46.630Z,28.59
2019-05-01T10:34:27.237Z,25.95
2019-05-01T10:36:57.565Z,26.67
2019-05-01T10:39:30.223Z,20.93
2019-05-01T10:42:00.195Z,21.05
2019-05-01T10:44:30.649Z,20.10
2019-05-01T10:47:02.088Z,22.42
2019-05-01T10:49:32.733Z,24.60
2019-05-01T10:52:13.604Z,24.78
2019-05-01T10:54:35.320Z,26.20
2019-05-01T10:57:05.839Z,28.41
2019-05-01T10:59:36.201Z,28.97
2019-05-01T11:02:08.769Z,27.78
2019-05-01T11:04:39.369Z,24.87
2019-05-01T11:07:09.832Z,23.02
2019-05-01T11:09:40.309Z,21.53
2019-05-01T11:12:10.759Z,21.44
2019-05-01T11:14:41.208Z,19.91
2019-05-01T11:17:11.751Z,23.15
2019-05-01T11:19:42.167Z,23.80
2019-05-01T11:22:12.668Z,24.07
2019-05-01T11:24:42.994Z,26.64
2019-05-01T11:27:13.520Z,27.83
2019-05-01T11:29:44.040Z,29.15
2019-05-01T11:32:29.912Z,29.99
2019-05-01T11:35:28.096Z,30.02
2019-05-01T11:38:19.330Z,26.56
2019-05-01T11:40:55.357Z,24.20
2019-05-01T11:43:25.827Z,23.32
2019-05-01T11:45:56.308Z,24.91
2019-05-01T11:48:30.126Z,24.84
2019-05-01T11:50:58.856Z,26.87
2019-05-01T11:53:29.339Z,27.70
2019-05-01T11:55:59.843Z,26.84
2019-05-01T11:58:30.178Z,26.22
2019-05-01T12:01:02.348Z,27.38
2019-05-01T12:03:32.771Z,25.79
2019-05-01T12:06:03.255Z,23.92
2019-05-01T12:08:33.741Z,23.95
2019-05-01T12:11:06.093Z,24.15
2019-05-01T12:13:43.555Z,25.64
2019-05-01T12:16:16.226Z,26.68
2019-05-01T12:18:46.640Z,26.52
2019-05-01T12:21:17.088Z,26.67
2019-05-01T12:23:47.409Z,28.62
2019-05-01T12:26:17.866Z,27.98
2019-05-01T12:28:48.434Z,30.03
2019-05-01T12:31:18.917Z,29.90
2019-05-01T12:33:49.350Z,30.41
2019-05-01T12:36:19.699Z,31.60
2019-05-01T12:38:50.124Z,30.77
2019-05-01T12:41:35.202Z,29.91
2019-05-01T12:44:05.773Z,29.82
2019-05-01T12:46:57.887Z,30.13
2019-05-01T12:49:28.568Z,28.74
2019-05-01T12:52:10.184Z,29.32
2019-05-01T12:54:41.356Z,28.18
2019-05-01T12:57:11.850Z,25.27
2019-05-01T12:59:42.348Z,25.66
2019-05-01T13:02:12.772Z,26.77
2019-05-01T13:04:43.196Z,28.40
2019-05-01T13:07:13.690Z,30.08
2019-05-01T13:09:44.158Z,26.45
2019-05-01T13:12:14.615Z,26.47
2019-05-01T13:14:45.042Z,25.93
2019-05-01T13:17:15.472Z,27.24
2019-05-01T13:19:45.893Z,28.43
2019-05-01T13:22:16.353Z,29.28
2019-05-01T13:24:52.819Z,29.23
2019-05-01T13:27:35.914Z,29.39
2019-05-01T13:30:21.236Z,28.67
2019-05-01T13:32:52.812Z,30.44
2019-05-01T13:35:23.138Z,31.18
2019-05-01T13:37:53.612Z,30.60
2019-05-01T13:40:24.129Z,31.83
2019-05-01T13:42:54.645Z,30.53
2019-05-01T13:45:25.175Z,30.28
2019-05-01T13:47:55.557Z,30.26
2019-05-01T13:50:26.241Z,31.36
2019-05-01T13:52:56.647Z,31.24
2019-05-01T13:55:27.797Z,30.29
2019-05-01T13:57:58.192Z,31.46
2019-05-01T14:00:28.709Z,30.45
2019-05-01T14:02:59.038Z,30.91
2019-05-01T14:05:29.688Z,32.18
2019-05-01T14:08:00.122Z,31.78
2019-05-01T14:10:30.528Z,31.62
2019-05-01T14:13:01.039Z,30.23
2019-05-01T14:15:31.419Z,32.46
2019-05-01T14:18:01.852Z,31.67
2019-05-01T14:20:39.933Z,30.64
2019-05-01T14:23:23.889Z,30.92
2019-05-01T14:26:03.239Z,31.35
2019-05-01T14:28:34.140Z,32.00
2019-05-01T14:31:05.000Z,32.31
2019-05-01T14:33:37.201Z,33.62
2019-05-01T14:36:07.665Z,31.43
2019-05-01T14:38:38.178Z,32.05
2019-05-01T14:41:08.607Z,31.87
2019-05-01T14:43:39.159Z,30.91
2019-05-01T14:46:09.599Z,29.51
2019-05-01T14:48:39.948Z,30.82
2019-05-01T14:51:10.213Z,31.45
2019-05-01T14:53:40.750Z,31.42
2019-05-01T14:56:11.310Z,29.03
2019-05-01T14:58:41.689Z,30.32
2019-05-01T15:01:12.217Z,28.90
2019-05-01T15:03:43.040Z,29.39
2019-05-01T15:06:13.524Z,28.98
2019-05-01T15:08:43.908Z,27.83
2019-05-01T15:11:14.547Z,28.77
2019-05-01T15:14:03.830Z,30.18
2019-05-01T15:16:39.837Z,30.88
2019-05-01T15:19:15.336Z,30.65
2019-05-01T15:21:45.855Z,29.05
2019-05-01T15:24:16.283Z,29.53
2019-05-01T15:26:47.247Z,30.50
2019-05-01T15:29:18.003Z,31.43
2019-05-01T15:31:48.703Z,30.82
2019-05-01T15:34:19.159Z,32.39
2019-05-01T15:36:49.581Z,30.03
2019-05-01T15:39:27.548Z,28.88
2019-05-01T15:42:22.626Z,29.30
2019-05-01T15:44:53.146Z,28.89
2019-05-01T15:47:23.596Z,29.20
2019-05-01T15:49:54.305Z,27.79
2019-05-01T15:52:24.780Z,28.50
2019-05-01T15:54:55.255Z,28.03
2019-05-01T15:57:25.799Z,28.31
2019-05-01T15:59:56.236Z,27.23
2019-05-01T16:02:26.679Z,25.76
2019-05-01T16:04:57.061Z,24.67
2019-05-01T16:07:27.651Z,25.67
2019-05-01T16:09:58.248Z,25.30
2019-05-01T16:12:43.208Z,26.43
2019-05-01T16:15:33.202Z,26.29
2019-05-01T16:18:04.596Z,26.97
2019-05-01T16:20:35.103Z,29.31
2019-05-01T16:23:05.503Z,32.61
2019-05-01T16:25:36.030Z,32.60
2019-05-01T16:28:06.465Z,36.95
2019-05-01T16:30:36.939Z,32.77
2019-05-01T16:33:07.451Z,34.81
2019-05-01T16:35:37.810Z,34.42
2019-05-01T16:38:22.456Z,35.31
2019-05-01T16:41:09.679Z,38.37
2019-05-01T16:43:40.054Z,33.70
2019-05-01T16:46:10.482Z,35.52
2019-05-01T16:48:41.080Z,34.52
2019-05-01T16:51:11.607Z,33.33
2019-05-01T16:53:42.142Z,33.13
2019-05-01T16:56:12.653Z,33.52
2019-05-01T16:58:43.724Z,34.16
2019-05-01T17:01:32.304Z,33.49
2019-05-01T17:04:10.527Z,36.87
2019-05-01T17:06:58.791Z,35.92
2019-05-01T17:09:43.601Z,37.47
2019-05-01T17:12:16.787Z,41.36
2019-05-01T17:14:47.332Z,43.08
2019-05-01T17:17:20.003Z,43.43
2019-05-01T17:19:50.583Z,45.77
2019-05-01T17:22:21.066Z,45.68
2019-05-01T17:24:51.717Z,45.40
2019-05-01T17:27:22.467Z,48.05
2019-05-01T17:29:53.018Z,50.13
2019-05-01T17:32:23.571Z,49.64
2019-05-01T17:34:53.980Z,50.52
2019-05-01T17:37:24.429Z,51.23
2019-05-01T17:39:54.957Z,49.73
2019-05-01T17:42:25.541Z,48.81
2019-05-01T17:44:59.577Z,50.34
2019-05-01T17:47:28.333Z,50.62
2019-05-01T17:49:58.901Z,51.88
2019-05-01T17:52:29.534Z,52.65
2019-05-01T17:55:01.437Z,52.40
2019-05-01T17:57:33.858Z,54.40
2019-05-01T18:00:19.741Z,54.47
2019-05-01T18:02:57.990Z,53.86
2019-05-01T18:05:38.426Z,53.36
2019-05-01T18:08:08.916Z,54.08
2019-05-01T18:10:39.797Z,54.67
2019-05-01T18:13:10.272Z,52.68
2019-05-01T18:15:40.887Z,54.39
2019-05-01T18:18:15.001Z,56.49
2019-05-01T18:20:43.604Z,56.08
2019-05-01T18:23:42.879Z,57.57
2019-05-01T18:26:51.033Z,58.19
2019-05-01T18:29:44.495Z,60.05
2019-05-01T18:32:16.905Z,61.64
2019-05-01T18:34:47.214Z,61.03
2019-05-01T18:37:26.305Z,62.17
2019-05-01T18:39:56.742Z,62.49
2019-05-01T18:42:27.427Z,63.28
2019-05-01T18:44:57.872Z,64.06
2019-05-01T18:47:28.879Z,64.41
2019-05-01T18:49:59.342Z,65.17
2019-05-01T18:52:29.839Z,65.48
2019-05-01T18:55:00.298Z,65.33
2019-05-01T18:57:30.819Z,65.61
2019-05-01T19:00:01.220Z,65.68
2019-05-01T19:02:31.711Z,66.14
2019-05-01T19:05:04.141Z,65.95
2019-05-01T19:07:34.111Z,65.81
2019-05-01T19:10:04.679Z,65.93
2019-05-01T19:12:35.195Z,67.21
2019-05-01T19:15:06.897Z,67.31
2019-05-01T19:17:37.356Z,68.12
2019-05-01T19:20:08.279Z,68.77
2019-05-01T19:22:38.646Z,68.14
2019-05-01T19:25:10.976Z,67.84
2019-05-01T19:27:41.262Z,67.56
2019-05-01T19:30:15.026Z,68.32
2019-05-01T19:32:45.070Z,67.26
2019-05-01T19:35:15.650Z,68.90
2019-05-01T19:37:46.126Z,68.23
2019-05-01T19:40:17.084Z,68.04
2019-05-01T19:42:47.522Z,68.82
2019-05-01T19:45:18.440Z,69.26
2019-05-01T19:47:49.081Z,69.48
2019-05-01T19:50:19.829Z,69.19
2019-05-01T19:52:50.390Z,69.46
2019-05-01T19:55:20.793Z,69.88
2019-05-01T19:57:51.380Z,70.52
2019-05-01T20:01:04.536Z,71.17
2019-05-01T20:03:37.045Z,71.68
2019-05-01T20:06:08.250Z,71.82
2019-05-01T20:08:38.957Z,71.82
2019-05-01T20:11:10.006Z,71.60
2019-05-01T20:13:40.539Z,71.08
2019-05-01T20:16:11.473Z,71.84
2019-05-01T20:18:41.945Z,71.55
2019-05-01T20:21:12.615Z,71.48
2019-05-01T20:23:43.096Z,71.47
2019-05-01T20:26:13.592Z,72.21
2019-05-01T20:28:43.952Z,71.91
2019-05-01T20:31:14.420Z,72.11
2019-05-01T20:33:44.881Z,72.01
2019-05-01T20:36:15.365Z,71.62
2019-05-01T20:38:45.812Z,72.01
2019-05-01T20:41:17.999Z,71.19
2019-05-01T20:43:48.320Z,71.40
2019-05-01T20:46:21.341Z,71.16
2019-05-01T20:48:51.055Z,71.42
2019-05-01T20:51:21.516Z,71.76
2019-05-01T20:53:51.932Z,72.12
2019-05-01T20:56:43.236Z,73.51
2019-05-01T20:59:13.657Z,74.40
2019-05-01T21:01:44.154Z,74.69
2019-05-01T21:04:42.658Z,74.56
2019-05-01T21:07:20.130Z,73.67
2019-05-01T21:09:57.015Z,73.79
2019-05-01T21:12:21.245Z,73.64
2019-05-01T21:14:51.779Z,73.31
2019-05-01T21:17:22.149Z,73.12
2019-05-01T21:19:54.490Z,72.55
2019-05-01T21:22:25.297Z,72.51
2019-05-01T21:24:55.803Z,72.21
2019-05-01T21:27:26.317Z,73.27
2019-05-01T21:29:56.689Z,74.08
2019-05-01T21:32:27.635Z,75.58
2019-05-01T21:34:58.253Z,76.98
2019-05-01T21:37:28.694Z,76.60
2019-05-01T21:39:59.092Z,75.71
2019-05-01T21:42:29.439Z,75.68
2019-05-01T21:44:59.912Z,75.93
2019-05-01T21:47:30.306Z,76.17
2019-05-01T21:50:00.809Z,75.22
2019-05-01T21:52:32.933Z,75.16
2019-05-01T21:55:03.513Z,74.64
2019-05-01T21:57:37.782Z,74.81
2019-05-01T22:00:08.278Z,75.17
2019-05-01T22:02:41.507Z,74.65
2019-05-01T22:05:10.964Z,73.97
2019-05-01T22:07:41.391Z,73.54
2019-05-01T22:10:12.124Z,74.12
2019-05-01T22:12:43.992Z,74.28
2019-05-01T22:15:21.907Z,73.92
2019-05-01T22:18:14.449Z,73.82
2019-05-01T22:21:06.718Z,74.23
2019-05-01T22:23:56.019Z,73.96
2019-05-01T22:26:28.114Z,73.83
2019-05-01T22:29:00.277Z,74.04
2019-05-01T22:31:48.346Z,74.56
2019-05-01T22:34:44.908Z,74.23
2019-05-01T22:37:15.347Z,74.35
2019-05-01T22:39:48.864Z,75.67
2019-05-01T22:42:19.254Z,76.07
2019-05-01T22:44:49.718Z,76.03
2019-05-01T22:47:20.262Z,77.42
2019-05-01T22:49:50.765Z,76.97
2019-05-01T22:52:21.051Z,77.68
2019-05-01T22:54:51.519Z,78.79
2019-05-01T22:57:21.830Z,78.75
2019-05-01T22:59:52.277Z,77.75
2019-05-01T23:02:50.890Z,76.66
2019-05-01T23:05:23.067Z,78.14
2019-05-01T23:07:53.286Z,76.79
2019-05-01T23:10:23.560Z,76.60
2019-05-01T23:12:54.035Z,76.46
2019-05-01T23:15:26.148Z,76.38
2019-05-01T23:17:56.575Z,76.47
2019-05-01T23:20:26.868Z,76.41
2019-05-01T23:22:57.281Z,76.41
2019-05-01T23:25:27.866Z,77.12
2019-05-01T23:27:59.623Z,76.38
2019-05-01T23:30:30.382Z,76.92
2019-05-01T23:33:00.808Z,76.23
2019-05-01T23:35:31.160Z,75.56
2019-05-01T23:38:01.684Z,75.63
2019-05-01T23:40:32.209Z,75.67
2019-05-01T23:43:02.557Z,75.29
2019-05-01T23:45:33.023Z,74.92
2019-05-01T23:48:04.535Z,75.57
2019-05-01T23:50:35.090Z,76.39
2019-05-01T23:53:09.058Z,75.95
2019-05-01T23:55:37.751Z,75.33
2019-05-01T23:58:08.314Z,74.50
